sensor_id;sensor_type;location;lat;lon;timestamp;pressure;altitude;pressure_sealevel;temperature;humidity
48267;BME280;34088;52.232;5.196;2024-03-02T00:00:34;99771.31;;;8.83;79.97
48267;BME280;34088;52.232;5.196;2024-03-02T00:03:00;99768.66;;;8.84;79.68
48267;BME280;34088;52.232;5.196;2024-03-02T00:05:25;99783.19;;;8.87;80.07
48267;BME280;34088;52.232;5.196;2024-03-02T00:07:58;99790.16;;;8.85;81.37
48267;BME280;34088;52.232;5.196;2024-03-02T00:10:34;99780.88;;;8.81;80.47
48267;BME280;34088;52.232;5.196;2024-03-02T00:13:02;99791.94;;;8.83;81.51
48267;BME280;34088;52.232;5.196;2024-03-02T00:17:56;99816.72;;;8.87;80.98
48267;BME280;34088;52.232;5.196;2024-03-02T00:33:32;99886.03;;;8.56;84.25
48267;BME280;34088;52.232;5.196;2024-03-02T00:35:58;99898.28;;;8.51;86.64
48267;BME280;34088;52.232;5.196;2024-03-02T00:38:25;99884.81;;;8.43;87.28
48267;BME280;34088;52.232;5.196;2024-03-02T00:40:50;99878.91;;;8.19;90.33
48267;BME280;34088;52.232;5.196;2024-03-02T00:43:38;99889.41;;;8.15;90.91
48267;BME280;34088;52.232;5.196;2024-03-02T00:46:06;99895.69;;;8.08;91.88
48267;BME280;34088;52.232;5.196;2024-03-02T00:48:31;99896.78;;;8.02;92.48
48267;BME280;34088;52.232;5.196;2024-03-02T00:50:57;99891.88;;;7.96;93.95
48267;BME280;34088;52.232;5.196;2024-03-02T00:53:25;99890.34;;;7.91;95.92
48267;BME280;34088;52.232;5.196;2024-03-02T00:55:51;99900.03;;;7.86;97.05
48267;BME280;34088;52.232;5.196;2024-03-02T00:58:17;99884.84;;;7.78;98.35
48267;BME280;34088;52.232;5.196;2024-03-02T01:00:42;99910.56;;;7.80;98.18
48267;BME280;34088;52.232;5.196;2024-03-02T01:03:07;99899.16;;;7.64;98.06
48267;BME280;34088;52.232;5.196;2024-03-02T01:05:33;99906.69;;;7.68;100.00
48267;BME280;34088;52.232;5.196;2024-03-02T01:07:58;99923.09;;;7.66;99.89
48267;BME280;34088;52.232;5.196;2024-03-02T01:10:24;99905.19;;;7.63;100.00
48267;BME280;34088;52.232;5.196;2024-03-02T01:12:51;99909.53;;;7.61;100.00
48267;BME280;34088;52.232;5.196;2024-03-02T01:15:16;99881.88;;;7.66;99.35
48267;BME280;34088;52.232;5.196;2024-03-02T01:17:41;99898.91;;;7.70;99.88
48267;BME280;34088;52.232;5.196;2024-03-02T01:20:07;99913.19;;;7.55;100.00
48267;BME280;34088;52.232;5.196;2024-03-02T01:22:33;99909.78;;;7.55;100.00
48267;BME280;34088;52.232;5.196;2024-03-02T01:24:58;99916.59;;;7.56;100.00
48267;BME280;34088;52.232;5.196;2024-03-02T01:27:23;99913.06;;;7.58;100.00
48267;BME280;34088;52.232;5.196;2024-03-02T01:29:49;99917.34;;;7.59;100.00
48267;BME280;34088;52.232;5.196;2024-03-02T01:32:14;99922.56;;;7.58;100.00
48267;BME280;34088;52.232;5.196;2024-03-02T01:34:40;99915.72;;;7.57;100.00
48267;BME280;34088;52.232;5.196;2024-03-02T01:37:06;99908.09;;;7.54;100.00
48267;BME280;34088;52.232;5.196;2024-03-02T01:39:31;99909.91;;;7.52;99.90
48267;BME280;34088;52.232;5.196;2024-03-02T01:41:56;99925.13;;;7.58;100.00
48267;BME280;34088;52.232;5.196;2024-03-02T01:44:21;99918.59;;;7.49;100.00
48267;BME280;34088;52.232;5.196;2024-03-02T01:46:47;99904.03;;;7.48;100.00
48267;BME280;34088;52.232;5.196;2024-03-02T01:49:12;99914.44;;;7.45;100.00
48267;BME280;34088;52.232;5.196;2024-03-02T01:51:37;99915.38;;;7.43;100.00
48267;BME280;34088;52.232;5.196;2024-03-02T01:54:03;99925.44;;;7.49;100.00
48267;BME280;34088;52.232;5.196;2024-03-02T01:56:28;99919.84;;;7.38;100.00
48267;BME280;34088;52.232;5.196;2024-03-02T01:58:53;99930.88;;;7.41;100.00
48267;BME280;34088;52.232;5.196;2024-03-02T02:01:19;99942.81;;;7.44;100.00
48267;BME280;34088;52.232;5.196;2024-03-02T02:03:44;99939.56;;;7.39;100.00
48267;BME280;34088;52.232;5.196;2024-03-02T02:06:09;99932.84;;;7.35;100.00
48267;BME280;34088;52.232;5.196;2024-03-02T02:08:37;99931.63;;;7.22;100.00
48267;BME280;34088;52.232;5.196;2024-03-02T02:11:02;99931.63;;;7.22;100.00
48267;BME280;34088;52.232;5.196;2024-03-02T02:13:27;99936.97;;;7.16;100.00
48267;BME280;34088;52.232;5.196;2024-03-02T02:15:53;99931.69;;;7.19;100.00
48267;BME280;34088;52.232;5.196;2024-03-02T02:18:18;99937.97;;;7.12;100.00
48267;BME280;34088;52.232;5.196;2024-03-02T02:20:43;99940.31;;;7.18;100.00
48267;BME280;34088;52.232;5.196;2024-03-02T02:23:09;99947.38;;;7.13;100.00
48267;BME280;34088;52.232;5.196;2024-03-02T02:25:35;99929.69;;;7.04;100.00
48267;BME280;34088;52.232;5.196;2024-03-02T02:28:00;99915.84;;;7.06;100.00
48267;BME280;34088;52.232;5.196;2024-03-02T02:30:30;99918.53;;;7.03;100.00
48267;BME280;34088;52.232;5.196;2024-03-02T02:32:56;99933.75;;;7.09;100.00
48267;BME280;34088;52.232;5.196;2024-03-02T02:35:21;99922.06;;;7.01;100.00
48267;BME280;34088;52.232;5.196;2024-03-02T02:37:47;99922.78;;;7.04;100.00
48267;BME280;34088;52.232;5.196;2024-03-02T02:40:14;99926.47;;;6.97;100.00
48267;BME280;34088;52.232;5.196;2024-03-02T02:42:39;99928.53;;;6.88;100.00
48267;BME280;34088;52.232;5.196;2024-03-02T02:45:08;99935.91;;;6.97;100.00
48267;BME280;34088;52.232;5.196;2024-03-02T02:47:34;99927.41;;;6.95;100.00
48267;BME280;34088;52.232;5.196;2024-03-02T02:50:03;99941.19;;;6.94;100.00
48267;BME280;34088;52.232;5.196;2024-03-02T02:52:36;99926.56;;;6.94;100.00
48267;BME280;34088;52.232;5.196;2024-03-02T02:55:06;99928.41;;;6.91;100.00
48267;BME280;34088;52.232;5.196;2024-03-02T02:57:32;99935.34;;;6.89;100.00
48267;BME280;34088;52.232;5.196;2024-03-02T03:00:02;99946.75;;;6.82;100.00
48267;BME280;34088;52.232;5.196;2024-03-02T03:02:30;99945.84;;;6.83;100.00
48267;BME280;34088;52.232;5.196;2024-03-02T03:04:56;99950.00;;;6.87;100.00
48267;BME280;34088;52.232;5.196;2024-03-02T03:07:22;99948.03;;;6.93;100.00
48267;BME280;34088;52.232;5.196;2024-03-02T03:09:48;99944.72;;;6.90;100.00
48267;BME280;34088;52.232;5.196;2024-03-02T03:12:13;99944.69;;;6.91;100.00
48267;BME280;34088;52.232;5.196;2024-03-02T03:14:39;99952.50;;;6.88;100.00
48267;BME280;34088;52.232;5.196;2024-03-02T03:17:05;99949.19;;;6.85;100.00
48267;BME280;34088;52.232;5.196;2024-03-02T03:19:32;99947.56;;;6.82;100.00
48267;BME280;34088;52.232;5.196;2024-03-02T03:21:57;99943.34;;;6.80;100.00
48267;BME280;34088;52.232;5.196;2024-03-02T03:24:22;99951.97;;;6.79;100.00
48267;BME280;34088;52.232;5.196;2024-03-02T03:26:47;99949.56;;;6.74;100.00
48267;BME280;34088;52.232;5.196;2024-03-02T03:29:13;99953.44;;;6.86;100.00
48267;BME280;34088;52.232;5.196;2024-03-02T03:31:38;99943.50;;;6.75;100.00
48267;BME280;34088;52.232;5.196;2024-03-02T03:34:03;99953.72;;;6.78;100.00
48267;BME280;34088;52.232;5.196;2024-03-02T03:36:28;99944.94;;;6.84;100.00
48267;BME280;34088;52.232;5.196;2024-03-02T03:38:54;99957.13;;;6.79;100.00
48267;BME280;34088;52.232;5.196;2024-03-02T03:41:19;99961.16;;;6.86;100.00
48267;BME280;34088;52.232;5.196;2024-03-02T03:43:44;99969.00;;;6.83;100.00
48267;BME280;34088;52.232;5.196;2024-03-02T03:46:09;99964.25;;;6.71;100.00
48267;BME280;34088;52.232;5.196;2024-03-02T03:48:35;99955.72;;;6.69;100.00
48267;BME280;34088;52.232;5.196;2024-03-02T03:51:00;99963.16;;;6.78;100.00
48267;BME280;34088;52.232;5.196;2024-03-02T03:53:25;99970.50;;;6.88;100.00
48267;BME280;34088;52.232;5.196;2024-03-02T03:55:51;99978.28;;;6.87;100.00
48267;BME280;34088;52.232;5.196;2024-03-02T03:58:16;99983.44;;;6.87;100.00
48267;BME280;34088;52.232;5.196;2024-03-02T04:00:43;99979.28;;;6.83;100.00
48267;BME280;34088;52.232;5.196;2024-03-02T04:03:09;99976.59;;;6.86;100.00
48267;BME280;34088;52.232;5.196;2024-03-02T04:05:34;99970.09;;;6.76;100.00
48267;BME280;34088;52.232;5.196;2024-03-02T04:07:59;99981.84;;;6.83;100.00
48267;BME280;34088;52.232;5.196;2024-03-02T04:10:25;99989.38;;;6.89;100.00
48267;BME280;34088;52.232;5.196;2024-03-02T04:12:51;99991.97;;;6.87;100.00
48267;BME280;34088;52.232;5.196;2024-03-02T04:15:16;99986.09;;;6.84;100.00
48267;BME280;34088;52.232;5.196;2024-03-02T04:17:43;99987.81;;;6.83;100.00
48267;BME280;34088;52.232;5.196;2024-03-02T04:20:09;99981.59;;;6.90;100.00
48267;BME280;34088;52.232;5.196;2024-03-02T04:22:34;99986.44;;;6.99;100.00
48267;BME280;34088;52.232;5.196;2024-03-02T04:25:00;99996.84;;;6.96;100.00
48267;BME280;34088;52.232;5.196;2024-03-02T04:27:26;99991.00;;;6.91;100.00
48267;BME280;34088;52.232;5.196;2024-03-02T04:29:51;99979.03;;;6.90;100.00
48267;BME280;34088;52.232;5.196;2024-03-02T04:32:16;99989.22;;;6.93;100.00
48267;BME280;34088;52.232;5.196;2024-03-02T04:34:42;99994.59;;;6.86;100.00
48267;BME280;34088;52.232;5.196;2024-03-02T04:37:08;99981.84;;;6.83;100.00
48267;BME280;34088;52.232;5.196;2024-03-02T04:39:34;99985.91;;;6.90;100.00
48267;BME280;34088;52.232;5.196;2024-03-02T04:41:59;99989.38;;;6.89;100.00
48267;BME280;34088;52.232;5.196;2024-03-02T04:44:25;99993.81;;;6.84;100.00
48267;BME280;34088;52.232;5.196;2024-03-02T04:46:50;99996.03;;;6.94;100.00
48267;BME280;34088;52.232;5.196;2024-03-02T04:49:16;100002.06;;;6.93;100.00
48267;BME280;34088;52.232;5.196;2024-03-02T04:51:41;99995.41;;;6.88;100.00
48267;BME280;34088;52.232;5.196;2024-03-02T04:54:06;100004.88;;;6.86;100.00
48267;BME280;34088;52.232;5.196;2024-03-02T04:56:31;100009.06;;;6.90;100.00
48267;BME280;34088;52.232;5.196;2024-03-02T04:58:57;100014.41;;;6.84;100.00
48267;BME280;34088;52.232;5.196;2024-03-02T05:01:22;100009.25;;;6.84;100.00
48267;BME280;34088;52.232;5.196;2024-03-02T05:03:48;100014.63;;;6.76;100.00
48267;BME280;34088;52.232;5.196;2024-03-02T05:06:13;100003.63;;;6.73;100.00
48267;BME280;34088;52.232;5.196;2024-03-02T05:08:38;100020.53;;;6.80;100.00
48267;BME280;34088;52.232;5.196;2024-03-02T05:11:03;100019.75;;;6.78;100.00
48267;BME280;34088;52.232;5.196;2024-03-02T05:13:58;100028.34;;;6.77;100.00
48267;BME280;34088;52.232;5.196;2024-03-02T05:16:23;100015.56;;;6.74;100.00
48267;BME280;34088;52.232;5.196;2024-03-02T05:18:48;100025.97;;;6.71;100.00
48267;BME280;34088;52.232;5.196;2024-03-02T05:21:13;100021.00;;;6.66;100.00
48267;BME280;34088;52.232;5.196;2024-03-02T05:23:39;100021.09;;;6.62;100.00
48267;BME280;34088;52.232;5.196;2024-03-02T05:26:04;100026.16;;;6.65;100.00
48267;BME280;34088;52.232;5.196;2024-03-02T05:28:29;100023.75;;;6.60;100.00
48267;BME280;34088;52.232;5.196;2024-03-02T05:30:55;100024.56;;;6.61;100.00
48267;BME280;34088;52.232;5.196;2024-03-02T05:33:20;100032.31;;;6.59;100.00
48267;BME280;34088;52.232;5.196;2024-03-02T05:35:47;100036.84;;;6.53;100.00
48267;BME280;34088;52.232;5.196;2024-03-02T05:38:15;100029.94;;;6.53;100.00
48267;BME280;34088;52.232;5.196;2024-03-02T05:40:41;100027.66;;;6.46;100.00
48267;BME280;34088;52.232;5.196;2024-03-02T05:43:06;100031.97;;;6.44;100.00
48267;BME280;34088;52.232;5.196;2024-03-02T05:45:32;100047.44;;;6.42;100.00
48267;BME280;34088;52.232;5.196;2024-03-02T05:47:57;100033.78;;;6.40;100.00
48267;BME280;34088;52.232;5.196;2024-03-02T05:50:23;100040.38;;;6.49;100.00
48267;BME280;34088;52.232;5.196;2024-03-02T05:52:48;100041.34;;;6.45;99.93
48267;BME280;34088;52.232;5.196;2024-03-02T05:55:14;100028.81;;;6.36;100.00
48267;BME280;34088;52.232;5.196;2024-03-02T05:57:40;100028.81;;;6.36;99.48
48267;BME280;34088;52.232;5.196;2024-03-02T06:00:09;100044.66;;;6.48;99.78
48267;BME280;34088;52.232;5.196;2024-03-02T06:02:34;100033.78;;;6.40;99.24
48267;BME280;34088;52.232;5.196;2024-03-02T06:05:00;100035.63;;;6.37;98.82
48267;BME280;34088;52.232;5.196;2024-03-02T06:07:25;100057.03;;;6.37;99.14
48267;BME280;34088;52.232;5.196;2024-03-02T06:09:51;100046.75;;;6.37;99.12
48267;BME280;34088;52.232;5.196;2024-03-02T06:12:18;100053.63;;;6.37;98.25
48267;BME280;34088;52.232;5.196;2024-03-02T06:14:43;100045.81;;;6.40;97.53
48267;BME280;34088;52.232;5.196;2024-03-02T06:17:08;100049.19;;;6.42;98.06
48267;BME280;34088;52.232;5.196;2024-03-02T06:19:33;100050.97;;;6.40;97.09
48267;BME280;34088;52.232;5.196;2024-03-02T06:21:59;100064.50;;;6.45;97.47
48267;BME280;34088;52.232;5.196;2024-03-02T06:24:24;100062.81;;;6.44;97.52
48267;BME280;34088;52.232;5.196;2024-03-02T06:26:51;100062.59;;;6.51;97.77
48267;BME280;34088;52.232;5.196;2024-03-02T06:29:17;100071.16;;;6.52;97.66
48267;BME280;34088;52.232;5.196;2024-03-02T06:31:42;100067.69;;;6.53;97.75
48267;BME280;34088;52.232;5.196;2024-03-02T06:34:07;100068.59;;;6.52;97.87
48267;BME280;34088;52.232;5.196;2024-03-02T06:36:33;100071.84;;;6.57;98.11
48267;BME280;34088;52.232;5.196;2024-03-02T06:38:59;100076.31;;;6.52;97.54
48267;BME280;34088;52.232;5.196;2024-03-02T06:41:25;100070.31;;;6.51;98.12
48267;BME280;34088;52.232;5.196;2024-03-02T06:43:51;100071.78;;;6.58;97.41
48267;BME280;34088;52.232;5.196;2024-03-02T06:46:24;100075.34;;;6.54;96.79
48267;BME280;34088;52.232;5.196;2024-03-02T06:48:49;100083.72;;;6.61;97.16
48267;BME280;34088;52.232;5.196;2024-03-02T06:51:15;100090.28;;;6.71;96.94
48267;BME280;34088;52.232;5.196;2024-03-02T06:53:41;100082.56;;;6.71;96.84
48267;BME280;34088;52.232;5.196;2024-03-02T06:56:07;100080.78;;;6.73;96.60
48267;BME280;34088;52.232;5.196;2024-03-02T06:58:33;100089.19;;;6.78;95.93
48267;BME280;34088;52.232;5.196;2024-03-02T07:00:58;100089.94;;;6.81;95.96
48267;BME280;34088;52.232;5.196;2024-03-02T07:03:25;100078.16;;;6.74;95.67
48267;BME280;34088;52.232;5.196;2024-03-02T07:05:51;100082.97;;;6.85;95.58
48267;BME280;34088;52.232;5.196;2024-03-02T07:08:16;100094.63;;;6.96;93.59
48267;BME280;34088;52.232;5.196;2024-03-02T07:10:41;100073.91;;;6.99;93.25
48267;BME280;34088;52.232;5.196;2024-03-02T07:13:06;100075.59;;;7.00;92.11
48267;BME280;34088;52.232;5.196;2024-03-02T07:15:32;100090.84;;;7.06;92.42
48267;BME280;34088;52.232;5.196;2024-03-02T07:18:15;100081.97;;;7.15;91.88
48267;BME280;34088;52.232;5.196;2024-03-02T07:20:41;100085.47;;;7.12;91.26
48267;BME280;34088;52.232;5.196;2024-03-02T07:23:06;100076.34;;;7.04;91.40
48267;BME280;34088;52.232;5.196;2024-03-02T07:25:31;100094.78;;;7.16;92.26
48267;BME280;34088;52.232;5.196;2024-03-02T07:27:57;100097.97;;;7.24;91.19
48267;BME280;34088;52.232;5.196;2024-03-02T07:30:22;100097.81;;;7.29;90.84
48267;BME280;34088;52.232;5.196;2024-03-02T07:32:50;100094.94;;;7.38;91.03
48267;BME280;34088;52.232;5.196;2024-03-02T07:35:15;100087.94;;;7.41;89.71
48267;BME280;34088;52.232;5.196;2024-03-02T07:37:41;100100.88;;;7.64;87.81
48267;BME280;34088;52.232;5.196;2024-03-02T07:40:07;100094.03;;;7.63;87.98
48267;BME280;34088;52.232;5.196;2024-03-02T07:42:37;100103.53;;;7.63;87.70
48267;BME280;34088;52.232;5.196;2024-03-02T07:45:03;100109.53;;;7.62;87.63
48267;BME280;34088;52.232;5.196;2024-03-02T07:47:28;100104.06;;;7.72;87.04
48267;BME280;34088;52.232;5.196;2024-03-02T07:49:54;100120.69;;;7.62;87.14
48267;BME280;34088;52.232;5.196;2024-03-02T07:52:19;100121.13;;;7.50;88.22
48267;BME280;34088;52.232;5.196;2024-03-02T07:54:44;100124.88;;;7.40;88.28
48267;BME280;34088;52.232;5.196;2024-03-02T07:57:10;100102.44;;;7.44;87.96
48267;BME280;34088;52.232;5.196;2024-03-02T07:59:36;100122.25;;;7.42;88.24
48267;BME280;34088;52.232;5.196;2024-03-02T08:02:01;100121.41;;;7.41;88.74
48267;BME280;34088;52.232;5.196;2024-03-02T08:04:26;100124.75;;;7.45;88.24
48267;BME280;34088;52.232;5.196;2024-03-02T08:06:52;100119.50;;;7.48;88.63
48267;BME280;34088;52.232;5.196;2024-03-02T08:09:17;100118.09;;;7.38;87.53
48267;BME280;34088;52.232;5.196;2024-03-02T08:11:42;100128.31;;;7.41;88.42
48267;BME280;34088;52.232;5.196;2024-03-02T08:14:08;100134.09;;;7.47;88.24
48267;BME280;34088;52.232;5.196;2024-03-02T08:16:33;100126.47;;;7.44;87.14
48267;BME280;34088;52.232;5.196;2024-03-02T08:18:59;100135.91;;;7.70;87.36
48267;BME280;34088;52.232;5.196;2024-03-02T08:21:25;100134.72;;;7.80;87.15
48267;BME280;34088;52.232;5.196;2024-03-02T08:23:50;100137.13;;;7.84;86.79
48267;BME280;34088;52.232;5.196;2024-03-02T08:26:16;100129.84;;;7.95;86.02
48267;BME280;34088;52.232;5.196;2024-03-02T08:28:41;100122.38;;;8.12;84.64
48267;BME280;34088;52.232;5.196;2024-03-02T08:31:07;100129.84;;;8.43;84.24
48267;BME280;34088;52.232;5.196;2024-03-02T08:33:33;100124.00;;;8.61;83.91
48267;BME280;34088;52.232;5.196;2024-03-02T08:35:58;100129.25;;;8.81;82.69
48267;BME280;34088;52.232;5.196;2024-03-02T08:38:24;100126.53;;;8.62;82.21
48267;BME280;34088;52.232;5.196;2024-03-02T08:40:50;100117.69;;;8.91;81.78
48267;BME280;34088;52.232;5.196;2024-03-02T08:43:15;100119.53;;;9.09;81.22
48267;BME280;34088;52.232;5.196;2024-03-02T08:45:41;100120.53;;;9.26;80.59
48267;BME280;34088;52.232;5.196;2024-03-02T08:48:09;100132.47;;;9.29;79.45
48267;BME280;34088;52.232;5.196;2024-03-02T08:50:35;100128.72;;;9.36;79.92
48267;BME280;34088;52.232;5.196;2024-03-02T08:53:00;100128.56;;;9.40;77.29
48267;BME280;34088;52.232;5.196;2024-03-02T08:55:26;100121.53;;;9.63;77.04
48267;BME280;34088;52.232;5.196;2024-03-02T08:57:51;100123.22;;;9.84;75.85
48267;BME280;34088;52.232;5.196;2024-03-02T09:00:17;100122.25;;;9.87;75.87
48267;BME280;34088;52.232;5.196;2024-03-02T09:02:44;100122.81;;;9.93;75.70
48267;BME280;34088;52.232;5.196;2024-03-02T09:05:09;100122.06;;;10.30;74.99
48267;BME280;34088;52.232;5.196;2024-03-02T09:07:35;100116.78;;;10.13;75.26
48267;BME280;34088;52.232;5.196;2024-03-02T09:10:00;100128.81;;;10.14;74.65
48267;BME280;34088;52.232;5.196;2024-03-02T09:12:25;100129.84;;;10.48;74.71
48267;BME280;34088;52.232;5.196;2024-03-02T09:14:51;100129.97;;;10.45;73.50
48267;BME280;34088;52.232;5.196;2024-03-02T09:17:16;100135.16;;;10.27;73.21
48267;BME280;34088;52.232;5.196;2024-03-02T09:19:41;100126.53;;;10.26;73.06
48267;BME280;34088;52.232;5.196;2024-03-02T09:22:06;100140.31;;;10.45;72.41
48267;BME280;34088;52.232;5.196;2024-03-02T09:24:32;100141.59;;;10.74;72.62
48267;BME280;34088;52.232;5.196;2024-03-02T09:27:00;100141.31;;;10.61;70.41
48267;BME280;34088;52.232;5.196;2024-03-02T09:29:26;100138.63;;;10.81;70.54
48267;BME280;34088;52.232;5.196;2024-03-02T09:31:51;100146.84;;;10.72;70.26
48267;BME280;34088;52.232;5.196;2024-03-02T09:34:16;100146.78;;;10.55;70.83
48267;BME280;34088;52.232;5.196;2024-03-02T09:36:42;100148.44;;;10.75;69.02
48267;BME280;34088;52.232;5.196;2024-03-02T09:39:07;100149.16;;;10.78;70.42
48267;BME280;34088;52.232;5.196;2024-03-02T09:41:35;100151.75;;;10.78;69.96
48267;BME280;34088;52.232;5.196;2024-03-02T09:44:02;100154.31;;;10.78;69.35
48267;BME280;34088;52.232;5.196;2024-03-02T09:46:27;100140.75;;;10.73;70.48
48267;BME280;34088;52.232;5.196;2024-03-02T09:48:52;100136.00;;;10.46;69.42
48267;BME280;34088;52.232;5.196;2024-03-02T09:51:19;100137.53;;;10.11;70.31
48267;BME280;34088;52.232;5.196;2024-03-02T09:53:45;100144.06;;;10.58;69.51
48267;BME280;34088;52.232;5.196;2024-03-02T09:56:12;100135.72;;;10.70;69.39
48267;BME280;34088;52.232;5.196;2024-03-02T09:58:38;100147.03;;;10.86;69.66
48267;BME280;34088;52.232;5.196;2024-03-02T10:01:06;100147.75;;;10.71;69.35
48267;BME280;34088;52.232;5.196;2024-03-02T10:03:33;100141.09;;;10.84;68.81
48267;BME280;34088;52.232;5.196;2024-03-02T10:08:46;100134.88;;;10.70;66.83
48267;BME280;34088;52.232;5.196;2024-03-02T10:11:26;100147.19;;;10.65;67.65
48267;BME280;34088;52.232;5.196;2024-03-02T10:14:12;100153.84;;;10.52;66.90
48267;BME280;34088;52.232;5.196;2024-03-02T10:16:42;100149.66;;;10.68;67.73
48267;BME280;34088;52.232;5.196;2024-03-02T10:19:24;100143.28;;;10.56;67.44
48267;BME280;34088;52.232;5.196;2024-03-02T10:21:53;100130.09;;;10.79;66.66
48267;BME280;34088;52.232;5.196;2024-03-02T10:24:20;100135.50;;;10.75;65.47
48267;BME280;34088;52.232;5.196;2024-03-02T10:26:45;100137.16;;;10.94;65.40
48267;BME280;34088;52.232;5.196;2024-03-02T10:29:11;100140.19;;;10.67;65.49
48267;BME280;34088;52.232;5.196;2024-03-02T10:31:41;100145.94;;;10.73;65.39
48267;BME280;34088;52.232;5.196;2024-03-02T10:34:07;100137.88;;;10.61;64.05
48267;BME280;34088;52.232;5.196;2024-03-02T10:36:36;100140.97;;;10.50;65.26
48267;BME280;34088;52.232;5.196;2024-03-02T10:39:06;100132.50;;;10.65;65.84
48267;BME280;34088;52.232;5.196;2024-03-02T10:41:36;100131.94;;;10.77;65.24
48267;BME280;34088;52.232;5.196;2024-03-02T10:44:02;100132.13;;;10.91;63.85
48267;BME280;34088;52.232;5.196;2024-03-02T10:46:29;100132.16;;;11.08;64.67
48267;BME280;34088;52.232;5.196;2024-03-02T10:48:59;100123.25;;;10.78;63.48
48267;BME280;34088;52.232;5.196;2024-03-02T10:51:29;100121.00;;;10.89;62.93
48267;BME280;34088;52.232;5.196;2024-03-02T10:53:57;100123.25;;;10.78;63.00
48267;BME280;34088;52.232;5.196;2024-03-02T10:59:02;100123.38;;;10.94;62.19
48267;BME280;34088;52.232;5.196;2024-03-02T11:01:29;100123.38;;;10.75;61.06
48267;BME280;34088;52.232;5.196;2024-03-02T11:03:57;100111.47;;;10.90;61.66
48267;BME280;34088;52.232;5.196;2024-03-02T11:06:23;100098.50;;;11.08;61.60
48267;BME280;34088;52.232;5.196;2024-03-02T11:08:53;100106.44;;;11.05;61.01
48267;BME280;34088;52.232;5.196;2024-03-02T11:11:30;100112.28;;;11.09;61.23
48267;BME280;34088;52.232;5.196;2024-03-02T11:13:57;100109.84;;;11.06;60.69
48267;BME280;34088;52.232;5.196;2024-03-02T11:16:35;100110.06;;;11.01;59.88
48267;BME280;34088;52.232;5.196;2024-03-02T11:19:06;100107.88;;;11.11;60.81
48267;BME280;34088;52.232;5.196;2024-03-02T11:21:33;100109.72;;;11.26;61.52
48267;BME280;34088;52.232;5.196;2024-03-02T11:23:59;100119.50;;;11.38;60.29
48267;BME280;34088;52.232;5.196;2024-03-02T11:26:25;100112.38;;;11.07;59.62
48267;BME280;34088;52.232;5.196;2024-03-02T11:28:50;100127.16;;;11.05;59.54
48267;BME280;34088;52.232;5.196;2024-03-02T11:31:15;100113.59;;;11.17;60.01
48267;BME280;34088;52.232;5.196;2024-03-02T11:33:40;100114.75;;;11.29;58.88
48267;BME280;34088;52.232;5.196;2024-03-02T11:36:07;100112.59;;;11.03;60.26
48267;BME280;34088;52.232;5.196;2024-03-02T11:38:34;100115.50;;;11.14;59.00
48267;BME280;34088;52.232;5.196;2024-03-02T11:41:06;100106.53;;;11.21;59.25
48267;BME280;34088;52.232;5.196;2024-03-02T11:43:39;100114.75;;;11.29;60.03
48267;BME280;34088;52.232;5.196;2024-03-02T11:46:05;100099.19;;;11.29;59.42
48267;BME280;34088;52.232;5.196;2024-03-02T11:48:35;100102.31;;;11.18;60.07
48267;BME280;34088;52.232;5.196;2024-03-02T11:51:01;100101.97;;;11.26;59.69
48267;BME280;34088;52.232;5.196;2024-03-02T11:53:27;100105.88;;;10.99;58.95
48267;BME280;34088;52.232;5.196;2024-03-02T11:55:58;100103.91;;;11.04;58.80
48267;BME280;34088;52.232;5.196;2024-03-02T11:58:24;100092.03;;;11.17;58.88
48267;BME280;34088;52.232;5.196;2024-03-02T12:00:52;100086.47;;;11.24;58.25
48267;BME280;34088;52.232;5.196;2024-03-02T12:03:17;100093.34;;;11.42;58.36
48267;BME280;34088;52.232;5.196;2024-03-02T12:05:42;100093.59;;;11.38;59.08
48267;BME280;34088;52.232;5.196;2024-03-02T12:08:08;100083.03;;;11.41;58.83
48267;BME280;34088;52.232;5.196;2024-03-02T12:10:37;100079.41;;;11.45;58.64
48267;BME280;34088;52.232;5.196;2024-03-02T12:13:05;100076.28;;;11.72;58.45
48267;BME280;34088;52.232;5.196;2024-03-02T12:15:33;100074.31;;;11.60;56.22
48267;BME280;34088;52.232;5.196;2024-03-02T12:18:00;100062.09;;;11.62;57.30
48267;BME280;34088;52.232;5.196;2024-03-02T12:20:27;100049.00;;;11.65;57.28
48267;BME280;34088;52.232;5.196;2024-03-02T12:23:00;100063.75;;;11.80;57.63
48267;BME280;34088;52.232;5.196;2024-03-02T12:25:27;100064.28;;;11.87;57.63
48267;BME280;34088;52.232;5.196;2024-03-02T12:27:56;100053.91;;;11.87;56.29
48267;BME280;34088;52.232;5.196;2024-03-02T12:30:22;100037.34;;;11.89;57.18
48267;BME280;34088;52.232;5.196;2024-03-02T12:32:48;100046.66;;;11.93;55.51
48267;BME280;34088;52.232;5.196;2024-03-02T12:35:14;100037.34;;;11.89;55.30
48267;BME280;34088;52.232;5.196;2024-03-02T12:37:44;100029.91;;;11.66;53.03
48267;BME280;34088;52.232;5.196;2024-03-02T12:40:14;100032.72;;;11.79;53.90
48267;BME280;34088;52.232;5.196;2024-03-02T12:42:40;100040.13;;;12.02;55.42
48267;BME280;34088;52.232;5.196;2024-03-02T12:45:07;100030.94;;;11.79;53.79
48267;BME280;34088;52.232;5.196;2024-03-02T12:47:33;100037.41;;;11.88;53.64
48267;BME280;34088;52.232;5.196;2024-03-02T12:49:59;100040.13;;;11.86;52.62
48267;BME280;34088;52.232;5.196;2024-03-02T12:52:24;100024.59;;;12.17;52.88
48267;BME280;34088;52.232;5.196;2024-03-02T12:54:50;100016.13;;;12.14;53.25
48267;BME280;34088;52.232;5.196;2024-03-02T12:57:18;100026.09;;;12.21;53.62
48267;BME280;34088;52.232;5.196;2024-03-02T12:59:46;100021.47;;;12.26;52.24
48267;BME280;34088;52.232;5.196;2024-03-02T13:02:18;100021.59;;;12.25;51.57
48267;BME280;34088;52.232;5.196;2024-03-02T13:04:44;100030.03;;;12.28;52.07
48267;BME280;34088;52.232;5.196;2024-03-02T13:07:10;100032.72;;;12.27;51.48
48267;BME280;34088;52.232;5.196;2024-03-02T13:09:35;100021.50;;;12.42;52.35
48267;BME280;34088;52.232;5.196;2024-03-02T13:12:01;100019.91;;;12.55;54.03
48267;BME280;34088;52.232;5.196;2024-03-02T13:14:26;100019.56;;;12.45;51.56